createdAt,value
2023-03-13T05:38:03.106Z,83.66
2023-03-13T05:39:05.145Z,83.66
2023-03-13T05:40:07.144Z,83.77
2023-03-13T05:41:09.165Z,83.77
2023-03-13T05:42:11.175Z,83.87
2023-03-13T05:43:13.182Z,83.77
2023-03-13T05:44:15.255Z,83.77
2023-03-13T05:45:17.265Z,83.66
2023-03-13T05:46:19.351Z,83.45
2023-03-13T05:47:21.372Z,83.36
2023-03-13T05:48:23.365Z,83.45
2023-03-13T05:49:25.391Z,83.45
2023-03-13T05:50:27.405Z,83.36
2023-03-13T05:51:29.425Z,83.36
2023-03-13T05:52:31.428Z,83.45
2023-03-13T05:53:33.436Z,83.56
2023-03-13T05:54:35.470Z,83.66
2023-03-13T05:55:37.471Z,83.77
2023-03-13T05:56:39.496Z,83.87
2023-03-13T05:57:41.513Z,83.87
2023-03-13T05:58:43.521Z,83.87
2023-03-13T05:59:45.551Z,83.63
2023-03-13T06:00:47.574Z,83.63
2023-03-13T06:01:49.574Z,83.73
2023-03-13T06:02:51.571Z,83.63
2023-03-13T06:03:53.739Z,83.73
2023-03-13T06:04:54.875Z,83.93
2023-03-13T06:05:56.899Z,84.24
2023-03-13T06:06:58.902Z,84.34
2023-03-13T06:08:00.923Z,84.65
2023-03-13T06:09:02.917Z,84.65
2023-03-13T06:10:04.926Z,84.96
2023-03-13T06:11:06.895Z,85.30
2023-03-13T06:12:08.917Z,85.62
2023-03-13T06:13:19.824Z,86.02
2023-03-13T06:14:12.341Z,86.33
2023-03-13T06:15:14.356Z,86.54
2023-03-13T06:16:16.420Z,86.95
2023-03-13T06:17:18.408Z,87.26
2023-03-13T06:18:20.442Z,87.26
2023-03-13T06:19:31.742Z,87.77
2023-03-13T06:20:23.843Z,88.18
2023-03-13T06:21:25.855Z,88.39
2023-03-13T06:22:27.865Z,88.18
2023-03-13T06:23:29.902Z,88.39
2023-03-13T06:24:31.897Z,88.28
2023-03-13T06:25:33.897Z,88.49
2023-03-13T06:26:35.903Z,88.39
2023-03-13T06:27:37.897Z,88.28
2023-03-13T06:28:39.916Z,88.07
2023-03-13T06:29:41.936Z,87.98
2023-03-13T06:30:43.974Z,88.07
2023-03-13T06:31:46.040Z,87.98
2023-03-13T06:32:48.185Z,88.18
2023-03-13T06:33:50.750Z,88.69
2023-03-13T06:34:51.619Z,88.80
2023-03-13T06:35:56.925Z,88.69
2023-03-13T06:36:55.672Z,88.90
2023-03-13T06:37:57.729Z,89.11
2023-03-13T06:38:59.741Z,88.90
2023-03-13T06:40:01.765Z,89.00
2023-03-13T06:41:03.796Z,88.80
2023-03-13T06:42:05.784Z,88.39
2023-03-13T06:43:07.779Z,88.39
2023-03-13T06:44:09.803Z,88.49
2023-03-13T06:45:11.806Z,88.14
2023-03-13T06:46:13.857Z,87.83
2023-03-13T06:47:15.948Z,87.73
2023-03-13T06:48:17.933Z,87.62
2023-03-13T06:49:19.927Z,87.62
2023-03-13T06:50:21.927Z,87.48
2023-03-13T06:51:23.968Z,87.17
2023-03-13T06:52:37.482Z,87.38
2023-03-13T06:53:27.409Z,87.17
2023-03-13T06:54:29.431Z,86.66
2023-03-13T06:55:31.471Z,86.46
2023-03-13T06:56:33.518Z,86.41
2023-03-13T06:57:35.539Z,86.35
2023-03-13T06:58:37.566Z,86.21
2023-03-13T06:59:39.554Z,85.90
2023-03-13T07:00:41.606Z,85.60
2023-03-13T07:01:43.656Z,85.39
2023-03-13T07:02:45.638Z,85.39
2023-03-13T07:03:47.731Z,85.04
2023-03-13T07:04:49.735Z,84.84
2023-03-13T07:05:51.776Z,84.94
2023-03-13T07:06:53.821Z,84.74
2023-03-13T07:07:55.851Z,84.84
2023-03-13T07:08:57.897Z,84.74
2023-03-13T07:09:59.932Z,84.94
2023-03-13T07:11:01.991Z,84.74
2023-03-13T07:12:03.989Z,84.63
2023-03-13T07:13:06.021Z,84.43
2023-03-13T07:14:16.387Z,84.22
2023-03-13T07:15:09.513Z,84.02
2023-03-13T07:16:11.620Z,84.02
2023-03-13T07:17:13.638Z,83.92
2023-03-13T07:18:15.668Z,83.81
2023-03-13T07:19:17.661Z,83.67
2023-03-13T07:20:19.718Z,83.47
2023-03-13T07:21:21.737Z,83.16
2023-03-13T07:22:23.760Z,83.36
2023-03-13T07:23:25.780Z,83.27
2023-03-13T07:24:27.807Z,83.16
2023-03-13T07:25:29.799Z,83.16
2023-03-13T07:26:31.866Z,83.06
2023-03-13T07:27:33.928Z,82.92
2023-03-13T07:28:37.764Z,82.81
2023-03-13T07:29:37.813Z,82.51
2023-03-13T07:30:39.840Z,82.71
2023-03-13T07:31:41.893Z,82.61
2023-03-13T07:32:43.920Z,82.40
2023-03-13T07:33:45.907Z,82.30
2023-03-13T07:34:47.919Z,82.26
2023-03-13T07:35:49.957Z,82.26
2023-03-13T07:36:51.996Z,81.96
2023-03-13T07:37:54.041Z,81.82
2023-03-13T07:38:56.081Z,81.41
2023-03-13T07:39:58.105Z,81.20
2023-03-13T07:41:00.185Z,81.00
2023-03-13T07:42:02.168Z,81.10
2023-03-13T07:43:04.207Z,81.06
2023-03-13T07:44:06.244Z,80.86
2023-03-13T07:45:08.864Z,81.06
2023-03-13T07:46:09.799Z,81.17
2023-03-13T07:47:11.802Z,81.06
2023-03-13T07:48:13.871Z,81.27
2023-03-13T07:49:15.884Z,81.37
2023-03-13T07:50:18.045Z,81.37
2023-03-13T07:51:25.296Z,81.37
2023-03-13T07:52:21.501Z,81.47
2023-03-13T07:53:24.134Z,81.47
2023-03-13T07:54:25.081Z,81.47
2023-03-13T07:55:27.080Z,81.47
2023-03-13T07:56:29.098Z,81.47
2023-03-13T07:57:31.143Z,81.47
2023-03-13T07:58:33.205Z,81.68
2023-03-13T07:59:35.245Z,81.57
2023-03-13T08:00:37.288Z,81.37
2023-03-13T08:01:39.318Z,81.57
2023-03-13T08:02:41.505Z,81.47
2023-03-13T08:03:43.546Z,81.37
2023-03-13T08:04:45.549Z,81.33
2023-03-13T08:05:47.561Z,81.33
2023-03-13T08:06:49.573Z,81.43
2023-03-13T08:07:51.589Z,81.23
2023-03-13T08:08:53.645Z,81.54
2023-03-13T08:09:55.666Z,81.13
2023-03-13T08:10:57.671Z,81.23
2023-03-13T08:11:59.701Z,81.03
2023-03-13T08:13:01.717Z,81.23
2023-03-13T08:14:03.784Z,81.33
2023-03-13T08:15:06.099Z,81.43
2023-03-13T08:16:06.991Z,81.54
2023-03-13T08:17:09.075Z,81.64
2023-03-13T08:18:11.095Z,81.68
2023-03-13T08:19:13.126Z,81.88
2023-03-13T08:20:15.155Z,81.98
2023-03-13T08:21:17.170Z,82.09
2023-03-13T08:22:19.175Z,82.04
2023-03-13T08:23:21.182Z,82.09
2023-03-13T08:24:23.217Z,82.09
2023-03-13T08:25:25.257Z,82.09
2023-03-13T08:26:27.405Z,82.19
2023-03-13T08:27:29.404Z,82.09
2023-03-13T08:28:31.426Z,82.19
2023-03-13T08:29:33.472Z,82.39
2023-03-13T08:30:35.528Z,82.70
2023-03-13T08:31:37.524Z,82.50
2023-03-13T08:32:39.586Z,82.60
2023-03-13T08:33:41.610Z,82.39
2023-03-13T08:34:43.640Z,82.39
2023-03-13T08:35:45.698Z,82.39
2023-03-13T08:36:47.704Z,82.60
2023-03-13T08:37:49.702Z,82.50
2023-03-13T08:38:51.725Z,82.50
2023-03-13T08:39:53.743Z,82.60
2023-03-13T08:40:56.547Z,82.60
2023-03-13T08:41:57.501Z,82.80
2023-03-13T08:42:59.538Z,82.80
2023-03-13T08:44:01.543Z,82.70
2023-03-13T08:45:03.567Z,82.66
2023-03-13T08:46:05.657Z,82.66
2023-03-13T08:47:07.660Z,82.76
2023-03-13T08:48:09.692Z,82.56
2023-03-13T08:49:11.725Z,82.76
2023-03-13T08:50:13.830Z,82.56
2023-03-13T08:51:15.889Z,82.45
2023-03-13T08:52:17.914Z,82.45
2023-03-13T08:53:19.928Z,82.36
2023-03-13T08:54:21.947Z,82.36
2023-03-13T08:55:26.228Z,82.25
2023-03-13T08:56:25.200Z,82.25
2023-03-13T08:57:27.231Z,82.22
2023-03-13T08:58:29.230Z,82.01
2023-03-13T08:59:31.297Z,81.90
2023-03-13T09:00:33.322Z,82.22
2023-03-13T09:01:35.350Z,82.01
2023-03-13T09:02:37.376Z,82.31
2023-03-13T09:03:39.422Z,82.22
2023-03-13T09:04:41.423Z,82.22
2023-03-13T09:05:55.604Z,82.42
2023-03-13T09:06:44.878Z,82.11
2023-03-13T09:07:46.905Z,82.11
2023-03-13T09:08:48.951Z,82.11
2023-03-13T09:09:50.953Z,82.01
2023-03-13T09:10:52.957Z,81.90
2023-03-13T09:11:55.042Z,82.01
2023-03-13T09:12:57.069Z,81.81
2023-03-13T09:13:59.054Z,81.70
2023-03-13T09:15:01.069Z,81.90
2023-03-13T09:16:03.140Z,81.90
2023-03-13T09:17:05.130Z,82.01
2023-03-13T09:18:07.154Z,82.01
2023-03-13T09:19:09.172Z,81.90
2023-03-13T09:20:11.205Z,81.76
2023-03-13T09:21:13.210Z,81.76
2023-03-13T09:22:15.291Z,81.76
2023-03-13T09:23:17.311Z,81.76
2023-03-13T09:24:19.322Z,81.56
2023-03-13T09:25:21.355Z,81.46
2023-03-13T09:26:23.665Z,81.56
2023-03-13T09:27:24.599Z,81.76
2023-03-13T09:28:26.633Z,81.76
2023-03-13T09:29:28.650Z,81.67
2023-03-13T09:30:30.684Z,81.67
2023-03-13T09:31:32.794Z,81.53
2023-03-13T09:32:34.902Z,81.42
2023-03-13T09:33:36.919Z,81.42
2023-03-13T09:34:38.945Z,81.32
2023-03-13T09:35:41.006Z,81.42
2023-03-13T09:36:43.050Z,81.32
2023-03-13T09:37:45.042Z,81.42
2023-03-13T09:38:47.088Z,81.28
2023-03-13T09:39:49.093Z,81.18
2023-03-13T09:41:05.193Z,81.08
2023-03-13T09:41:52.556Z,81.08
2023-03-13T09:42:54.593Z,81.08
2023-03-13T09:43:56.611Z,80.98
2023-03-13T09:44:58.632Z,80.98
2023-03-13T09:46:00.697Z,81.08
2023-03-13T09:47:02.681Z,81.08
2023-03-13T09:48:04.692Z,80.87
2023-03-13T09:49:06.736Z,80.87
2023-03-13T09:50:08.769Z,80.84
2023-03-13T09:51:10.806Z,80.94
2023-03-13T09:52:12.882Z,80.84
2023-03-13T09:53:14.903Z,80.84
2023-03-13T09:54:16.945Z,80.94
2023-03-13T09:55:18.950Z,80.84
2023-03-13T09:56:21.013Z,80.94
2023-03-13T09:57:23.043Z,80.84
2023-03-13T09:58:25.074Z,80.94
2023-03-13T09:59:27.093Z,81.04
2023-03-13T10:00:30.025Z,81.14
2023-03-13T10:01:31.012Z,81.25
2023-03-13T10:02:33.084Z,81.14
2023-03-13T10:03:35.088Z,81.14
2023-03-13T10:04:39.295Z,81.55
2023-03-13T10:05:38.717Z,81.65
2023-03-13T10:06:40.723Z,81.45
2023-03-13T10:07:42.766Z,81.45
2023-03-13T10:08:44.779Z,81.45
2023-03-13T10:09:46.806Z,81.45
2023-03-13T10:10:48.837Z,81.45
2023-03-13T10:11:50.870Z,81.55
2023-03-13T10:12:52.967Z,81.55
2023-03-13T10:13:55.015Z,81.35
2023-03-13T10:14:57.064Z,81.45
2023-03-13T10:15:59.159Z,81.31
2023-03-13T10:17:01.148Z,81.31
2023-03-13T10:18:03.226Z,81.51
2023-03-13T10:19:05.263Z,81.21
2023-03-13T10:20:07.264Z,81.10
2023-03-13T10:21:09.300Z,81.21
2023-03-13T10:22:11.333Z,81.21
2023-03-13T10:23:13.355Z,81.31
2023-03-13T10:24:15.383Z,81.31
2023-03-13T10:25:17.657Z,81.31
2023-03-13T10:26:18.622Z,81.31
2023-03-13T10:27:20.640Z,81.21
2023-03-13T10:28:22.697Z,81.21
2023-03-13T10:29:24.737Z,81.21
2023-03-13T10:30:26.784Z,81.31
2023-03-13T10:31:28.958Z,81.10
2023-03-13T10:32:30.996Z,81.10
2023-03-13T10:33:33.017Z,81.21
2023-03-13T10:34:35.031Z,81.31
2023-03-13T10:35:37.102Z,81.31
2023-03-13T10:36:39.117Z,81.17
2023-03-13T10:37:41.146Z,81.27
2023-03-13T10:38:43.205Z,81.07
2023-03-13T10:39:45.239Z,81.17
2023-03-13T10:40:47.256Z,81.07
2023-03-13T10:41:49.284Z,80.96
2023-03-13T10:42:51.288Z,80.96
2023-03-13T10:43:53.310Z,80.96
2023-03-13T10:44:55.338Z,81.17
2023-03-13T10:45:57.350Z,81.07
2023-03-13T10:47:00.026Z,81.07
2023-03-13T10:48:00.971Z,81.07
2023-03-13T10:49:02.987Z,81.07
2023-03-13T10:50:05.032Z,81.07
2023-03-13T10:51:07.065Z,80.72
2023-03-13T10:52:09.083Z,80.62
2023-03-13T10:53:11.088Z,80.41
2023-03-13T10:54:13.147Z,80.32
2023-03-13T10:55:15.185Z,80.21
2023-03-13T10:56:17.217Z,80.07
2023-03-13T10:57:19.230Z,80.18
2023-03-13T10:58:21.280Z,80.07
2023-03-13T10:59:23.270Z,79.87
2023-03-13T11:00:25.289Z,79.77
2023-03-13T11:01:27.319Z,79.77
2023-03-13T11:02:29.472Z,79.73
2023-03-13T11:03:31.612Z,79.84
2023-03-13T11:04:32.603Z,79.84
2023-03-13T11:05:34.638Z,79.73
2023-03-13T11:06:36.661Z,79.84
2023-03-13T11:07:38.668Z,79.43
2023-03-13T11:08:40.792Z,79.08
2023-03-13T11:09:42.819Z,78.78
2023-03-13T11:10:44.903Z,78.03
2023-03-13T11:11:46.909Z,77.89
2023-03-13T11:12:48.920Z,76.94
2023-03-13T11:13:50.957Z,76.30
2023-03-13T11:14:53.044Z,76.00
2023-03-13T11:15:55.109Z,75.55
2023-03-13T11:16:57.123Z,75.04
2023-03-13T11:17:59.149Z,74.84
2023-03-13T11:19:01.174Z,74.71
2023-03-13T11:20:03.205Z,74.84
2023-03-13T11:21:17.708Z,74.95
2023-03-13T11:22:06.749Z,75.25
2023-03-13T11:23:08.791Z,75.04
2023-03-13T11:24:10.890Z,75.39
2023-03-13T11:25:12.974Z,75.69
2023-03-13T11:26:24.022Z,75.45
2023-03-13T11:27:16.150Z,75.21
2023-03-13T11:28:18.165Z,74.67
2023-03-13T11:29:20.304Z,73.29
2023-03-13T11:30:22.329Z,72.58
2023-03-13T11:31:24.412Z,71.60
2023-03-13T11:32:26.493Z,70.55
2023-03-13T11:33:28.478Z,70.55
2023-03-13T11:34:30.503Z,70.05
2023-03-13T11:35:32.566Z,69.81
2023-03-13T11:36:34.570Z,70.35
2023-03-13T11:37:36.604Z,70.25
2023-03-13T11:38:38.630Z,69.84
2023-03-13T11:39:40.689Z,70.28
2023-03-13T11:40:42.694Z,71.02
2023-03-13T11:41:44.757Z,71.43
2023-03-13T11:42:46.818Z,71.77
2023-03-13T11:43:48.843Z,72.27
2023-03-13T11:44:50.920Z,72.91
2023-03-13T11:45:53.102Z,73.12
2023-03-13T11:46:55.212Z,73.32
2023-03-13T11:47:57.195Z,73.25
2023-03-13T11:48:59.208Z,73.55
2023-03-13T11:50:01.211Z,72.91
2023-03-13T11:51:03.370Z,71.36
2023-03-13T11:52:05.419Z,67.87
2023-03-13T11:53:07.493Z,65.78
2023-03-13T11:54:08.572Z,64.08
2023-03-13T11:55:10.609Z,62.62
2023-03-13T11:56:12.663Z,61.35
2023-03-13T11:57:14.684Z,59.96
2023-03-13T11:58:15.830Z,59.03
2023-03-13T11:59:17.862Z,58.10
2023-03-13T12:00:19.897Z,57.74
2023-03-13T12:01:22.001Z,56.74
2023-03-13T12:02:24.111Z,58.00
2023-03-13T12:03:26.184Z,59.69
2023-03-13T12:04:28.193Z,59.56
2023-03-13T12:05:30.328Z,58.00
2023-03-13T12:06:32.345Z,57.17
2023-03-13T12:07:34.389Z,57.50
2023-03-13T12:08:36.466Z,58.53
2023-03-13T12:09:38.553Z,59.25
2023-03-13T12:10:40.596Z,59.49
2023-03-13T12:11:42.605Z,60.24
2023-03-13T12:12:44.674Z,61.30
2023-03-13T12:13:45.814Z,62.24
2023-03-13T12:14:47.816Z,62.87
2023-03-13T12:15:49.832Z,63.71
2023-03-13T12:16:51.894Z,64.68
2023-03-13T12:17:54.017Z,65.08
2023-03-13T12:18:55.999Z,65.52
2023-03-13T12:19:58.035Z,66.12
2023-03-13T12:21:00.123Z,66.76
2023-03-13T12:22:02.160Z,66.99
2023-03-13T12:23:04.184Z,67.52
2023-03-13T12:24:06.274Z,68.26
2023-03-13T12:25:08.298Z,68.70
2023-03-13T12:26:10.302Z,69.14
2023-03-13T12:27:12.318Z,69.75
2023-03-13T12:28:14.385Z,70.28
2023-03-13T12:29:16.411Z,70.28
2023-03-13T12:30:18.420Z,70.38
2023-03-13T12:31:20.471Z,70.48
2023-03-13T12:32:22.580Z,70.89
2023-03-13T12:33:24.710Z,71.13
2023-03-13T12:34:26.706Z,71.33
2023-03-13T12:35:28.733Z,71.33
2023-03-13T12:36:30.807Z,71.33
2023-03-13T12:37:32.811Z,71.23
2023-03-13T12:38:34.851Z,71.09
2023-03-13T12:39:36.862Z,70.89
2023-03-13T12:40:38.870Z,70.79
2023-03-13T12:41:40.884Z,70.79
2023-03-13T12:42:42.915Z,70.89
2023-03-13T12:43:49.660Z,70.69
2023-03-13T12:44:46.372Z,70.89
2023-03-13T12:45:48.455Z,71.19
2023-03-13T12:46:50.552Z,71.53
2023-03-13T12:47:52.596Z,71.43
2023-03-13T12:48:54.604Z,71.63
2023-03-13T12:49:56.628Z,72.17
2023-03-13T12:50:58.637Z,72.68
2023-03-13T12:52:00.670Z,72.68
2023-03-13T12:53:02.703Z,73.02
2023-03-13T12:54:04.830Z,73.02
2023-03-13T12:55:06.884Z,73.02
2023-03-13T12:56:08.892Z,73.22
2023-03-13T12:57:10.908Z,73.02
2023-03-13T12:58:13.005Z,73.22
2023-03-13T12:59:15.017Z,73.42
2023-03-13T13:00:17.030Z,73.52
2023-03-13T13:01:19.067Z,73.73
2023-03-13T13:02:21.066Z,73.62
2023-03-13T13:03:23.103Z,73.73
2023-03-13T13:04:25.167Z,73.73
2023-03-13T13:05:27.155Z,73.73
2023-03-13T13:06:29.171Z,73.62
2023-03-13T13:07:31.186Z,73.52
2023-03-13T13:08:33.205Z,73.62
2023-03-13T13:09:35.237Z,73.62
2023-03-13T13:10:37.260Z,73.42
2023-03-13T13:11:39.381Z,73.73
2023-03-13T13:12:41.413Z,73.93
2023-03-13T13:13:43.454Z,73.82
2023-03-13T13:14:45.463Z,73.93
2023-03-13T13:15:47.564Z,73.93
2023-03-13T13:16:49.553Z,73.93
2023-03-13T13:17:51.576Z,74.03
2023-03-13T13:18:53.603Z,73.82
2023-03-13T13:19:55.624Z,74.13
2023-03-13T13:20:57.652Z,73.93
2023-03-13T13:21:59.692Z,73.93
2023-03-13T13:23:01.724Z,73.73
2023-03-13T13:24:03.745Z,73.59
2023-03-13T13:25:05.746Z,73.38
2023-03-13T13:26:07.774Z,73.08
2023-03-13T13:27:09.812Z,72.98
2023-03-13T13:28:11.854Z,72.78
2023-03-13T13:29:14.002Z,72.68
2023-03-13T13:30:15.977Z,72.65
2023-03-13T13:31:18.119Z,72.44
2023-03-13T13:32:20.174Z,71.80
2023-03-13T13:33:22.192Z,71.60
2023-03-13T13:34:24.206Z,71.50
2023-03-13T13:35:26.216Z,71.19
2023-03-13T13:36:28.240Z,71.30
2023-03-13T13:37:30.292Z,71.53
2023-03-13T13:38:32.324Z,71.73
2023-03-13T13:39:34.405Z,72.03
2023-03-13T13:40:36.434Z,72.14
2023-03-13T13:41:38.523Z,72.17
2023-03-13T13:42:40.535Z,72.37
2023-03-13T13:43:42.667Z,72.58
2023-03-13T13:44:44.683Z,72.58
2023-03-13T13:45:46.696Z,72.78
2023-03-13T13:46:48.845Z,72.88
2023-03-13T13:47:49.816Z,72.88
2023-03-13T13:48:51.858Z,73.12
2023-03-13T13:49:53.875Z,73.12
2023-03-13T13:50:56.781Z,73.12
2023-03-13T13:51:57.695Z,73.08
2023-03-13T13:52:59.704Z,72.98
2023-03-13T13:54:01.721Z,72.98
2023-03-13T13:55:03.779Z,72.88
2023-03-13T13:56:05.789Z,72.98
2023-03-13T13:57:07.952Z,72.88
2023-03-13T13:58:09.991Z,72.68
2023-03-13T13:59:11.995Z,72.37
2023-03-13T14:00:14.053Z,72.27
2023-03-13T14:01:16.132Z,72.14
2023-03-13T14:02:18.169Z,71.83
2023-03-13T14:03:20.197Z,71.73
2023-03-13T14:04:22.196Z,71.63
2023-03-13T14:05:24.282Z,71.73
2023-03-13T14:06:26.315Z,71.63
2023-03-13T14:07:28.374Z,71.73
2023-03-13T14:08:30.369Z,71.60
2023-03-13T14:09:32.401Z,71.30
2023-03-13T14:10:34.425Z,71.19
2023-03-13T14:11:36.439Z,70.86
2023-03-13T14:12:38.503Z,70.66
2023-03-13T14:13:40.506Z,70.55
2023-03-13T14:14:42.517Z,70.32
2023-03-13T14:15:44.605Z,70.32
2023-03-13T14:16:46.647Z,70.11
2023-03-13T14:17:48.660Z,70.22
2023-03-13T14:18:50.665Z,69.98
2023-03-13T14:19:52.676Z,69.78
2023-03-13T14:20:54.710Z,69.68
2023-03-13T14:21:56.733Z,69.81
2023-03-13T14:23:01.313Z,70.32
2023-03-13T14:24:00.201Z,70.11
2023-03-13T14:25:02.215Z,70.35
2023-03-13T14:26:04.238Z,70.66
2023-03-13T14:27:06.247Z,70.86
2023-03-13T14:28:08.262Z,70.95
2023-03-13T14:29:10.299Z,70.95
2023-03-13T14:30:12.312Z,71.06
2023-03-13T14:31:14.361Z,71.30
2023-03-13T14:32:16.404Z,71.39
2023-03-13T14:33:18.415Z,71.70
2023-03-13T14:34:20.423Z,71.80
2023-03-13T14:35:22.436Z,71.90
2023-03-13T14:36:24.477Z,72.21
2023-03-13T14:37:26.528Z,72.21
2023-03-13T14:38:28.540Z,72.34
2023-03-13T14:39:30.549Z,72.44
2023-03-13T14:40:32.589Z,72.65
2023-03-13T14:41:34.602Z,72.74
2023-03-13T14:42:36.653Z,73.18
2023-03-13T14:43:38.669Z,73.18
2023-03-13T14:44:40.728Z,73.29
2023-03-13T14:45:42.786Z,73.18
2023-03-13T14:46:44.911Z,73.45
2023-03-13T14:47:46.923Z,73.15
2023-03-13T14:48:48.952Z,73.05
2023-03-13T14:49:50.941Z,73.15
2023-03-13T14:50:59.622Z,72.94
2023-03-13T14:51:54.399Z,72.85
2023-03-13T14:52:56.406Z,72.74
2023-03-13T14:53:58.426Z,72.54
2023-03-13T14:55:00.456Z,72.65
2023-03-13T14:56:02.488Z,72.50
2023-03-13T14:57:04.530Z,72.41
2023-03-13T14:58:06.567Z,72.21
2023-03-13T14:59:08.571Z,72.10
2023-03-13T15:00:10.588Z,71.90
2023-03-13T15:01:12.617Z,71.56
2023-03-13T15:02:14.735Z,71.26
2023-03-13T15:03:16.759Z,71.26
2023-03-13T15:04:18.862Z,71.26
2023-03-13T15:05:20.842Z,71.36
2023-03-13T15:06:22.869Z,71.46
2023-03-13T15:07:24.898Z,71.56
2023-03-13T15:08:26.930Z,71.70
2023-03-13T15:09:28.958Z,71.77
2023-03-13T15:10:31.037Z,71.66
2023-03-13T15:11:33.055Z,71.66
2023-03-13T15:12:35.091Z,71.70
2023-03-13T15:13:37.204Z,71.70
2023-03-13T15:14:39.221Z,71.70
2023-03-13T15:15:41.251Z,71.70
2023-03-13T15:16:43.286Z,71.80
2023-03-13T15:17:45.308Z,71.80
2023-03-13T15:18:47.340Z,71.80
2023-03-13T15:19:49.358Z,71.90
2023-03-13T15:20:51.363Z,72.21
2023-03-13T15:21:53.374Z,72.54
2023-03-13T15:22:55.401Z,72.44
2023-03-13T15:23:57.402Z,72.44
2023-03-13T15:25:08.016Z,72.65
2023-03-13T15:26:00.909Z,72.74
2023-03-13T15:27:02.927Z,73.05
2023-03-13T15:28:04.942Z,73.08
2023-03-13T15:29:06.972Z,72.98
2023-03-13T15:30:08.984Z,73.08
2023-03-13T15:31:11.048Z,73.18
2023-03-13T15:32:13.148Z,73.18
2023-03-13T15:33:15.160Z,73.29
2023-03-13T15:34:17.188Z,73.38
2023-03-13T15:35:19.751Z,73.59
2023-03-13T15:36:20.650Z,73.69
2023-03-13T15:37:22.683Z,73.82
2023-03-13T15:38:24.717Z,74.03
2023-03-13T15:39:29.561Z,74.03
2023-03-13T15:40:28.343Z,74.03
2023-03-13T15:41:30.362Z,74.13
2023-03-13T15:42:32.368Z,73.93
2023-03-13T15:43:34.490Z,73.79
2023-03-13T15:44:36.520Z,73.69
2023-03-13T15:45:38.593Z,73.79
2023-03-13T15:46:40.587Z,73.79
2023-03-13T15:47:42.626Z,73.99
2023-03-13T15:48:44.644Z,74.09
2023-03-13T15:49:46.654Z,73.89
2023-03-13T15:50:48.703Z,73.79
2023-03-13T15:51:50.718Z,73.69
2023-03-13T15:52:52.749Z,73.59
2023-03-13T15:53:54.793Z,73.49
2023-03-13T15:54:56.789Z,73.59
2023-03-13T15:55:58.801Z,73.38
2023-03-13T15:57:00.814Z,73.38
2023-03-13T15:58:02.841Z,73.38
2023-03-13T15:59:04.870Z,73.38
2023-03-13T16:00:06.885Z,73.49
2023-03-13T16:01:08.929Z,73.35
2023-03-13T16:02:10.919Z,73.05
2023-03-13T16:03:12.939Z,72.74
2023-03-13T16:04:15.035Z,72.41
2023-03-13T16:05:17.105Z,72.50
2023-03-13T16:06:19.111Z,72.21
2023-03-13T16:07:21.157Z,72.00
2023-03-13T16:08:34.840Z,72.07
2023-03-13T16:09:24.623Z,72.10
2023-03-13T16:10:26.611Z,72.07
2023-03-13T16:11:28.621Z,71.97
2023-03-13T16:12:30.694Z,72.10
2023-03-13T16:13:32.745Z,72.10
2023-03-13T16:14:35.439Z,72.07
2023-03-13T16:15:36.368Z,71.97
2023-03-13T16:16:38.417Z,72.50
2023-03-13T16:17:40.411Z,72.07
2023-03-13T16:18:42.430Z,72.00
2023-03-13T16:19:44.452Z,72.30
2023-03-13T16:20:46.565Z,72.21
2023-03-13T16:21:48.608Z,72.54
2023-03-13T16:22:53.320Z,72.85
2023-03-13T16:23:52.272Z,73.05
2023-03-13T16:24:54.318Z,73.15
2023-03-13T16:25:56.350Z,73.25
2023-03-13T16:26:58.381Z,73.29
2023-03-13T16:28:00.394Z,73.49
2023-03-13T16:29:02.414Z,73.49
2023-03-13T16:30:04.514Z,73.69
2023-03-13T16:31:06.559Z,73.69
2023-03-13T16:32:08.584Z,73.89
2023-03-13T16:33:19.825Z,73.99
2023-03-13T16:34:11.943Z,74.13
2023-03-13T16:35:13.970Z,74.33
2023-03-13T16:36:16.045Z,74.33
2023-03-13T16:37:18.068Z,74.43
2023-03-13T16:38:20.080Z,74.54
2023-03-13T16:39:22.113Z,74.67
2023-03-13T16:40:24.161Z,74.77
2023-03-13T16:41:26.188Z,74.98
2023-03-13T16:42:28.199Z,74.87
2023-03-13T16:43:30.233Z,74.98
2023-03-13T16:44:32.243Z,74.98
2023-03-13T16:45:34.264Z,74.98
2023-03-13T16:46:36.345Z,75.07
2023-03-13T16:47:38.414Z,75.07
2023-03-13T16:48:40.415Z,75.18
2023-03-13T16:49:42.452Z,75.18
2023-03-13T16:50:44.487Z,75.28
2023-03-13T16:51:46.542Z,75.48
2023-03-13T16:52:48.562Z,75.48
2023-03-13T16:53:50.569Z,75.58
2023-03-13T16:54:52.603Z,75.58
2023-03-13T16:55:54.624Z,75.78
2023-03-13T16:56:56.674Z,75.78
2023-03-13T16:57:58.702Z,76.12
2023-03-13T16:59:00.703Z,76.03
2023-03-13T17:00:02.791Z,76.23
